<?xml version="1.0" encoding="UTF-8" standalone="no" ?>
<gpx xmlns="http://www.topografix.com/GPX/1/1" xmlns:xsi="http://www.w3.org/2001/XMLSchema-instance" xsi:schemaLocation="http://www.topografix.com/GPX/1/1 http://www.topografix.com/GPX/1/1/gpx.xsd" version="1.1" creator="VisuGPX - https://www.visugpx.com">
  <metadata>
    <name>13177525-ardeche 06-06 version TER</name>
  </metadata>
  <trk>
    <name><![CDATA[13177525-ardeche 06-06 version TER]]></name>
    <trkseg>
      <trkpt lat="45.23677" lon="4.6157">
        <ele>404</ele>
        <time>2021-06-04T05:27:19Z</time>
      </trkpt>
      <trkpt lat="45.23673" lon="4.61539">
        <ele>403</ele>
        <time>2021-06-04T05:27:49Z</time>
      </trkpt>
      <trkpt lat="45.23671" lon="4.61525">
        <ele>403</ele>
        <time>2021-06-04T05:28:02Z</time>
      </trkpt>
      <trkpt lat="45.23669" lon="4.61503">
        <ele>403</ele>
        <time>2021-06-04T05:28:23Z</time>
      </trkpt>
      <trkpt lat="45.23657" lon="4.61404">
        <ele>404</ele>
        <time>2021-06-04T05:29:57Z</time>
      </trkpt>
      <trkpt lat="45.23642" lon="4.61286">
        <ele>402</ele>
        <time>2021-06-04T05:31:50Z</time>
      </trkpt>
      <trkpt lat="45.23641" lon="4.61278">
        <ele>402</ele>
        <time>2021-06-04T05:31:58Z</time>
      </trkpt>
      <trkpt lat="45.2365" lon="4.61271">
        <ele>404</ele>
        <time>2021-06-04T05:32:11Z</time>
      </trkpt>
      <trkpt lat="45.23656" lon="4.61261">
        <ele>405</ele>
        <time>2021-06-04T05:32:24Z</time>
      </trkpt>
      <trkpt lat="45.23661" lon="4.61214">
        <ele>406</ele>
        <time>2021-06-04T05:33:08Z</time>
      </trkpt>
      <trkpt lat="45.23678" lon="4.61173">
        <ele>409</ele>
        <time>2021-06-04T05:33:53Z</time>
      </trkpt>
      <trkpt lat="45.23711" lon="4.61102">
        <ele>415</ele>
        <time>2021-06-04T05:35:13Z</time>
      </trkpt>
      <trkpt lat="45.23736" lon="4.61052">
        <ele>419</ele>
        <time>2021-06-04T05:36:11Z</time>
      </trkpt>
      <trkpt lat="45.23752" lon="4.61027">
        <ele>421</ele>
        <time>2021-06-04T05:36:42Z</time>
      </trkpt>
      <trkpt lat="45.2377" lon="4.61006">
        <ele>423</ele>
        <time>2021-06-04T05:37:13Z</time>
      </trkpt>
      <trkpt lat="45.23796" lon="4.60989">
        <ele>428</ele>
        <time>2021-06-04T05:37:52Z</time>
      </trkpt>
      <trkpt lat="45.23814" lon="4.60981">
        <ele>431</ele>
        <time>2021-06-04T05:38:17Z</time>
      </trkpt>
      <trkpt lat="45.23833" lon="4.60976">
        <ele>434</ele>
        <time>2021-06-04T05:38:43Z</time>
      </trkpt>
      <trkpt lat="45.23856" lon="4.60973">
        <ele>437</ele>
        <time>2021-06-04T05:39:13Z</time>
      </trkpt>
      <trkpt lat="45.23863" lon="4.60967">
        <ele>438</ele>
        <time>2021-06-04T05:39:24Z</time>
      </trkpt>
      <trkpt lat="45.23868" lon="4.60957">
        <ele>438</ele>
        <time>2021-06-04T05:39:36Z</time>
      </trkpt>
      <trkpt lat="45.23865" lon="4.60941">
        <ele>438</ele>
        <time>2021-06-04T05:39:51Z</time>
      </trkpt>
      <trkpt lat="45.23823" lon="4.60888">
        <ele>436</ele>
        <time>2021-06-04T05:41:06Z</time>
      </trkpt>
      <trkpt lat="45.23804" lon="4.60826">
        <ele>439</ele>
        <time>2021-06-04T05:42:10Z</time>
      </trkpt>
      <trkpt lat="45.23801" lon="4.60825">
        <ele>439</ele>
        <time>2021-06-04T05:42:14Z</time>
      </trkpt>
      <trkpt lat="45.23781" lon="4.60794">
        <ele>437</ele>
        <time>2021-06-04T05:42:54Z</time>
      </trkpt>
      <trkpt lat="45.23763" lon="4.60779">
        <ele>434</ele>
        <time>2021-06-04T05:43:21Z</time>
      </trkpt>
      <trkpt lat="45.23721" lon="4.60729">
        <ele>426</ele>
        <time>2021-06-04T05:44:35Z</time>
      </trkpt>
      <trkpt lat="45.23714" lon="4.60707">
        <ele>425</ele>
        <time>2021-06-04T05:44:57Z</time>
      </trkpt>
      <trkpt lat="45.23708" lon="4.60701">
        <ele>424</ele>
        <time>2021-06-04T05:45:07Z</time>
      </trkpt>
      <trkpt lat="45.23673" lon="4.60707">
        <ele>415</ele>
        <time>2021-06-04T05:45:54Z</time>
      </trkpt>
      <trkpt lat="45.23643" lon="4.60708">
        <ele>409</ele>
        <time>2021-06-04T05:46:34Z</time>
      </trkpt>
      <trkpt lat="45.23631" lon="4.60707">
        <ele>407</ele>
        <time>2021-06-04T05:46:50Z</time>
      </trkpt>
      <trkpt lat="45.23626" lon="4.6069">
        <ele>406</ele>
        <time>2021-06-04T05:47:07Z</time>
      </trkpt>
      <trkpt lat="45.23627" lon="4.60667">
        <ele>406</ele>
        <time>2021-06-04T05:47:29Z</time>
      </trkpt>
      <trkpt lat="45.23622" lon="4.6066">
        <ele>405</ele>
        <time>2021-06-04T05:47:38Z</time>
      </trkpt>
      <trkpt lat="45.23632" lon="4.60611">
        <ele>406</ele>
        <time>2021-06-04T05:48:26Z</time>
      </trkpt>
      <trkpt lat="45.23641" lon="4.60588">
        <ele>406</ele>
        <time>2021-06-04T05:48:51Z</time>
      </trkpt>
      <trkpt lat="45.23687" lon="4.60515">
        <ele>410</ele>
        <time>2021-06-04T05:50:23Z</time>
      </trkpt>
      <trkpt lat="45.23698" lon="4.605">
        <ele>411</ele>
        <time>2021-06-04T05:50:44Z</time>
      </trkpt>
      <trkpt lat="45.23713" lon="4.60486">
        <ele>413</ele>
        <time>2021-06-04T05:51:07Z</time>
      </trkpt>
      <trkpt lat="45.23727" lon="4.60462">
        <ele>413</ele>
        <time>2021-06-04T05:51:37Z</time>
      </trkpt>
      <trkpt lat="45.23745" lon="4.60412">
        <ele>409</ele>
        <time>2021-06-04T05:52:30Z</time>
      </trkpt>
      <trkpt lat="45.23754" lon="4.60393">
        <ele>412</ele>
        <time>2021-06-04T05:52:51Z</time>
      </trkpt>
      <trkpt lat="45.2376" lon="4.60382">
        <ele>414</ele>
        <time>2021-06-04T05:53:04Z</time>
      </trkpt>
      <trkpt lat="45.23824" lon="4.603">
        <ele>421</ele>
        <time>2021-06-04T05:54:59Z</time>
      </trkpt>
      <trkpt lat="45.23837" lon="4.60277">
        <ele>420</ele>
        <time>2021-06-04T05:55:27Z</time>
      </trkpt>
      <trkpt lat="45.23846" lon="4.60233">
        <ele>422</ele>
        <time>2021-06-04T05:56:10Z</time>
      </trkpt>
      <trkpt lat="45.23859" lon="4.60248">
        <ele>423</ele>
        <time>2021-06-04T05:56:32Z</time>
      </trkpt>
      <trkpt lat="45.23867" lon="4.60246">
        <ele>425</ele>
        <time>2021-06-04T05:56:43Z</time>
      </trkpt>
      <trkpt lat="45.23909" lon="4.6023">
        <ele>435</ele>
        <time>2021-06-04T05:57:41Z</time>
      </trkpt>
      <trkpt lat="45.23936" lon="4.60246">
        <ele>439</ele>
        <time>2021-06-04T05:58:20Z</time>
      </trkpt>
      <trkpt lat="45.23945" lon="4.60253">
        <ele>441</ele>
        <time>2021-06-04T05:58:34Z</time>
      </trkpt>
      <trkpt lat="45.23981" lon="4.60268">
        <ele>448</ele>
        <time>2021-06-04T05:59:24Z</time>
      </trkpt>
      <trkpt lat="45.24032" lon="4.60276">
        <ele>457</ele>
        <time>2021-06-04T06:00:32Z</time>
      </trkpt>
      <trkpt lat="45.24083" lon="4.6028">
        <ele>464</ele>
        <time>2021-06-04T06:01:41Z</time>
      </trkpt>
      <trkpt lat="45.24125" lon="4.60278">
        <ele>467</ele>
        <time>2021-06-04T06:02:37Z</time>
      </trkpt>
      <trkpt lat="45.24205" lon="4.60269">
        <ele>471</ele>
        <time>2021-06-04T06:04:24Z</time>
      </trkpt>
      <trkpt lat="45.24248" lon="4.60271">
        <ele>474</ele>
        <time>2021-06-04T06:05:21Z</time>
      </trkpt>
      <trkpt lat="45.2429" lon="4.60284">
        <ele>481</ele>
        <time>2021-06-04T06:06:19Z</time>
      </trkpt>
      <trkpt lat="45.2433" lon="4.60302">
        <ele>489</ele>
        <time>2021-06-04T06:07:15Z</time>
      </trkpt>
      <trkpt lat="45.2437" lon="4.60325">
        <ele>495</ele>
        <time>2021-06-04T06:08:12Z</time>
      </trkpt>
      <trkpt lat="45.24378" lon="4.60325">
        <ele>495</ele>
        <time>2021-06-04T06:08:23Z</time>
      </trkpt>
      <trkpt lat="45.2439" lon="4.60314">
        <ele>495</ele>
        <time>2021-06-04T06:08:42Z</time>
      </trkpt>
      <trkpt lat="45.24398" lon="4.60299">
        <ele>494</ele>
        <time>2021-06-04T06:09:00Z</time>
      </trkpt>
      <trkpt lat="45.24402" lon="4.6028">
        <ele>492</ele>
        <time>2021-06-04T06:09:18Z</time>
      </trkpt>
      <trkpt lat="45.24402" lon="4.60261">
        <ele>490</ele>
        <time>2021-06-04T06:09:36Z</time>
      </trkpt>
      <trkpt lat="45.2441" lon="4.60262">
        <ele>490</ele>
        <time>2021-06-04T06:09:47Z</time>
      </trkpt>
      <trkpt lat="45.2443" lon="4.60291">
        <ele>493</ele>
        <time>2021-06-04T06:10:25Z</time>
      </trkpt>
      <trkpt lat="45.24444" lon="4.60303">
        <ele>494</ele>
        <time>2021-06-04T06:10:47Z</time>
      </trkpt>
      <trkpt lat="45.24485" lon="4.60348">
        <ele>504</ele>
        <time>2021-06-04T06:11:56Z</time>
      </trkpt>
      <trkpt lat="45.24507" lon="4.60363">
        <ele>507</ele>
        <time>2021-06-04T06:12:28Z</time>
      </trkpt>
      <trkpt lat="45.24566" lon="4.60427">
        <ele>517</ele>
        <time>2021-06-04T06:14:07Z</time>
      </trkpt>
      <trkpt lat="45.24595" lon="4.60473">
        <ele>523</ele>
        <time>2021-06-04T06:15:05Z</time>
      </trkpt>
      <trkpt lat="45.24619" lon="4.60553">
        <ele>533</ele>
        <time>2021-06-04T06:16:27Z</time>
      </trkpt>
      <trkpt lat="45.24626" lon="4.60606">
        <ele>541</ele>
        <time>2021-06-04T06:17:18Z</time>
      </trkpt>
      <trkpt lat="45.24641" lon="4.6062">
        <ele>542</ele>
        <time>2021-06-04T06:17:42Z</time>
      </trkpt>
      <trkpt lat="45.24658" lon="4.60623">
        <ele>540</ele>
        <time>2021-06-04T06:18:05Z</time>
      </trkpt>
      <trkpt lat="45.24685" lon="4.60635">
        <ele>542</ele>
        <time>2021-06-04T06:18:42Z</time>
      </trkpt>
      <trkpt lat="45.24708" lon="4.60662">
        <ele>547</ele>
        <time>2021-06-04T06:19:22Z</time>
      </trkpt>
      <trkpt lat="45.24749" lon="4.60695">
        <ele>553</ele>
        <time>2021-06-04T06:20:25Z</time>
      </trkpt>
      <trkpt lat="45.24767" lon="4.60714">
        <ele>555</ele>
        <time>2021-06-04T06:20:55Z</time>
      </trkpt>
      <trkpt lat="45.24778" lon="4.60733">
        <ele>557</ele>
        <time>2021-06-04T06:21:18Z</time>
      </trkpt>
      <trkpt lat="45.24783" lon="4.60735">
        <ele>557</ele>
        <time>2021-06-04T06:21:25Z</time>
      </trkpt>
      <trkpt lat="45.24789" lon="4.60743">
        <ele>558</ele>
        <time>2021-06-04T06:21:36Z</time>
      </trkpt>
      <trkpt lat="45.248" lon="4.60758">
        <ele>559</ele>
        <time>2021-06-04T06:21:56Z</time>
      </trkpt>
      <trkpt lat="45.24813" lon="4.6078">
        <ele>561</ele>
        <time>2021-06-04T06:22:23Z</time>
      </trkpt>
      <trkpt lat="45.24822" lon="4.60788">
        <ele>561</ele>
        <time>2021-06-04T06:22:38Z</time>
      </trkpt>
      <trkpt lat="45.2483" lon="4.6079">
        <ele>561</ele>
        <time>2021-06-04T06:22:48Z</time>
      </trkpt>
      <trkpt lat="45.2484" lon="4.60798">
        <ele>562</ele>
        <time>2021-06-04T06:23:04Z</time>
      </trkpt>
      <trkpt lat="45.2485" lon="4.60801">
        <ele>563</ele>
        <time>2021-06-04T06:23:17Z</time>
      </trkpt>
      <trkpt lat="45.24853" lon="4.60812">
        <ele>564</ele>
        <time>2021-06-04T06:23:28Z</time>
      </trkpt>
      <trkpt lat="45.24869" lon="4.60845">
        <ele>569</ele>
        <time>2021-06-04T06:24:06Z</time>
      </trkpt>
      <trkpt lat="45.24893" lon="4.60884">
        <ele>574</ele>
        <time>2021-06-04T06:24:55Z</time>
      </trkpt>
      <trkpt lat="45.24896" lon="4.60892">
        <ele>575</ele>
        <time>2021-06-04T06:25:03Z</time>
      </trkpt>
      <trkpt lat="45.24902" lon="4.60924">
        <ele>579</ele>
        <time>2021-06-04T06:25:34Z</time>
      </trkpt>
      <trkpt lat="45.24912" lon="4.60954">
        <ele>583</ele>
        <time>2021-06-04T06:26:06Z</time>
      </trkpt>
      <trkpt lat="45.24925" lon="4.60946">
        <ele>583</ele>
        <time>2021-06-04T06:26:24Z</time>
      </trkpt>
      <trkpt lat="45.24937" lon="4.60947">
        <ele>583</ele>
        <time>2021-06-04T06:26:41Z</time>
      </trkpt>
      <trkpt lat="45.24945" lon="4.60972">
        <ele>587</ele>
        <time>2021-06-04T06:27:06Z</time>
      </trkpt>
      <trkpt lat="45.24959" lon="4.60977">
        <ele>588</ele>
        <time>2021-06-04T06:27:26Z</time>
      </trkpt>
      <trkpt lat="45.24965" lon="4.60983">
        <ele>589</ele>
        <time>2021-06-04T06:27:35Z</time>
      </trkpt>
      <trkpt lat="45.24975" lon="4.61002">
        <ele>592</ele>
        <time>2021-06-04T06:27:58Z</time>
      </trkpt>
      <trkpt lat="45.24983" lon="4.61051">
        <ele>601</ele>
        <time>2021-06-04T06:28:45Z</time>
      </trkpt>
      <trkpt lat="45.24989" lon="4.61073">
        <ele>605</ele>
        <time>2021-06-04T06:29:07Z</time>
      </trkpt>
      <trkpt lat="45.24988" lon="4.61082">
        <ele>607</ele>
        <time>2021-06-04T06:29:16Z</time>
      </trkpt>
      <trkpt lat="45.24983" lon="4.61096">
        <ele>609</ele>
        <time>2021-06-04T06:29:30Z</time>
      </trkpt>
      <trkpt lat="45.24982" lon="4.61106">
        <ele>610</ele>
        <time>2021-06-04T06:29:40Z</time>
      </trkpt>
      <trkpt lat="45.24994" lon="4.61149">
        <ele>618</ele>
        <time>2021-06-04T06:30:23Z</time>
      </trkpt>
      <trkpt lat="45.25003" lon="4.61161">
        <ele>621</ele>
        <time>2021-06-04T06:30:40Z</time>
      </trkpt>
      <trkpt lat="45.25013" lon="4.61186">
        <ele>625</ele>
        <time>2021-06-04T06:31:07Z</time>
      </trkpt>
      <trkpt lat="45.25025" lon="4.61197">
        <ele>628</ele>
        <time>2021-06-04T06:31:26Z</time>
      </trkpt>
      <trkpt lat="45.25061" lon="4.6124">
        <ele>636</ele>
        <time>2021-06-04T06:32:29Z</time>
      </trkpt>
      <trkpt lat="45.25078" lon="4.61255">
        <ele>639</ele>
        <time>2021-06-04T06:32:55Z</time>
      </trkpt>
      <trkpt lat="45.25087" lon="4.61277">
        <ele>639</ele>
        <time>2021-06-04T06:33:19Z</time>
      </trkpt>
      <trkpt lat="45.25161" lon="4.6135">
        <ele>642</ele>
        <time>2021-06-04T06:35:19Z</time>
      </trkpt>
      <trkpt lat="45.25177" lon="4.61357">
        <ele>643</ele>
        <time>2021-06-04T06:35:42Z</time>
      </trkpt>
      <trkpt lat="45.25199" lon="4.61362">
        <ele>644</ele>
        <time>2021-06-04T06:36:12Z</time>
      </trkpt>
      <trkpt lat="45.25233" lon="4.61361">
        <ele>648</ele>
        <time>2021-06-04T06:36:57Z</time>
      </trkpt>
      <trkpt lat="45.25247" lon="4.61366">
        <ele>649</ele>
        <time>2021-06-04T06:37:16Z</time>
      </trkpt>
      <trkpt lat="45.25294" lon="4.61393">
        <ele>649</ele>
        <time>2021-06-04T06:38:24Z</time>
      </trkpt>
      <trkpt lat="45.2531" lon="4.61397">
        <ele>651</ele>
        <time>2021-06-04T06:38:46Z</time>
      </trkpt>
      <trkpt lat="45.25327" lon="4.61397">
        <ele>654</ele>
        <time>2021-06-04T06:39:08Z</time>
      </trkpt>
      <trkpt lat="45.25355" lon="4.61393">
        <ele>655</ele>
        <time>2021-06-04T06:39:46Z</time>
      </trkpt>
      <trkpt lat="45.25374" lon="4.61386">
        <ele>656</ele>
        <time>2021-06-04T06:40:12Z</time>
      </trkpt>
      <trkpt lat="45.25408" lon="4.61363">
        <ele>662</ele>
        <time>2021-06-04T06:41:02Z</time>
      </trkpt>
      <trkpt lat="45.25431" lon="4.61337">
        <ele>668</ele>
        <time>2021-06-04T06:41:41Z</time>
      </trkpt>
      <trkpt lat="45.2544" lon="4.61322">
        <ele>671</ele>
        <time>2021-06-04T06:42:00Z</time>
      </trkpt>
      <trkpt lat="45.25473" lon="4.6131">
        <ele>671</ele>
        <time>2021-06-04T06:42:45Z</time>
      </trkpt>
      <trkpt lat="45.25489" lon="4.61309">
        <ele>671</ele>
        <time>2021-06-04T06:43:07Z</time>
      </trkpt>
      <trkpt lat="45.25522" lon="4.61314">
        <ele>671</ele>
        <time>2021-06-04T06:43:51Z</time>
      </trkpt>
      <trkpt lat="45.25535" lon="4.61313">
        <ele>673</ele>
        <time>2021-06-04T06:44:08Z</time>
      </trkpt>
      <trkpt lat="45.25565" lon="4.61301">
        <ele>677</ele>
        <time>2021-06-04T06:44:50Z</time>
      </trkpt>
      <trkpt lat="45.2558" lon="4.61278">
        <ele>679</ele>
        <time>2021-06-04T06:45:19Z</time>
      </trkpt>
      <trkpt lat="45.25593" lon="4.61272">
        <ele>680</ele>
        <time>2021-06-04T06:45:38Z</time>
      </trkpt>
      <trkpt lat="45.25604" lon="4.61271">
        <ele>681</ele>
        <time>2021-06-04T06:45:52Z</time>
      </trkpt>
      <trkpt lat="45.25628" lon="4.61281">
        <ele>682</ele>
        <time>2021-06-04T06:46:26Z</time>
      </trkpt>
      <trkpt lat="45.25658" lon="4.61278">
        <ele>685</ele>
        <time>2021-06-04T06:47:06Z</time>
      </trkpt>
      <trkpt lat="45.2567" lon="4.61269">
        <ele>686</ele>
        <time>2021-06-04T06:47:24Z</time>
      </trkpt>
      <trkpt lat="45.25689" lon="4.61241">
        <ele>687</ele>
        <time>2021-06-04T06:48:01Z</time>
      </trkpt>
      <trkpt lat="45.25703" lon="4.6123">
        <ele>688</ele>
        <time>2021-06-04T06:48:22Z</time>
      </trkpt>
      <trkpt lat="45.2572" lon="4.61219">
        <ele>689</ele>
        <time>2021-06-04T06:48:47Z</time>
      </trkpt>
      <trkpt lat="45.25747" lon="4.61212">
        <ele>692</ele>
        <time>2021-06-04T06:49:24Z</time>
      </trkpt>
      <trkpt lat="45.25783" lon="4.61196">
        <ele>695</ele>
        <time>2021-06-04T06:50:14Z</time>
      </trkpt>
      <trkpt lat="45.25807" lon="4.6119">
        <ele>698</ele>
        <time>2021-06-04T06:50:46Z</time>
      </trkpt>
      <trkpt lat="45.25832" lon="4.61175">
        <ele>702</ele>
        <time>2021-06-04T06:51:23Z</time>
      </trkpt>
      <trkpt lat="45.25848" lon="4.61163">
        <ele>704</ele>
        <time>2021-06-04T06:51:47Z</time>
      </trkpt>
      <trkpt lat="45.25894" lon="4.61139">
        <ele>706</ele>
        <time>2021-06-04T06:52:52Z</time>
      </trkpt>
      <trkpt lat="45.25921" lon="4.61157">
        <ele>709</ele>
        <time>2021-06-04T06:53:32Z</time>
      </trkpt>
      <trkpt lat="45.25977" lon="4.61168">
        <ele>719</ele>
        <time>2021-06-04T06:54:47Z</time>
      </trkpt>
      <trkpt lat="45.25996" lon="4.61188">
        <ele>721</ele>
        <time>2021-06-04T06:55:19Z</time>
      </trkpt>
      <trkpt lat="45.26013" lon="4.61196">
        <ele>722</ele>
        <time>2021-06-04T06:55:43Z</time>
      </trkpt>
      <trkpt lat="45.26053" lon="4.61197">
        <ele>725</ele>
        <time>2021-06-04T06:56:36Z</time>
      </trkpt>
      <trkpt lat="45.26094" lon="4.61177">
        <ele>729</ele>
        <time>2021-06-04T06:57:34Z</time>
      </trkpt>
      <trkpt lat="45.26112" lon="4.61152">
        <ele>729</ele>
        <time>2021-06-04T06:58:08Z</time>
      </trkpt>
      <trkpt lat="45.26146" lon="4.61098">
        <ele>731</ele>
        <time>2021-06-04T06:59:16Z</time>
      </trkpt>
      <trkpt lat="45.2617" lon="4.61039">
        <ele>733</ele>
        <time>2021-06-04T07:00:20Z</time>
      </trkpt>
      <trkpt lat="45.26201" lon="4.60986">
        <ele>734</ele>
        <time>2021-06-04T07:01:24Z</time>
      </trkpt>
      <trkpt lat="45.2622" lon="4.60951">
        <ele>734</ele>
        <time>2021-06-04T07:02:06Z</time>
      </trkpt>
      <trkpt lat="45.26277" lon="4.60875">
        <ele>741</ele>
        <time>2021-06-04T07:03:50Z</time>
      </trkpt>
      <trkpt lat="45.26303" lon="4.60852">
        <ele>745</ele>
        <time>2021-06-04T07:04:31Z</time>
      </trkpt>
      <trkpt lat="45.26325" lon="4.60843">
        <ele>749</ele>
        <time>2021-06-04T07:05:02Z</time>
      </trkpt>
      <trkpt lat="45.26321" lon="4.60839">
        <ele>749</ele>
        <time>2021-06-04T07:05:08Z</time>
      </trkpt>
      <trkpt lat="45.26329" lon="4.60847">
        <ele>750</ele>
        <time>2021-06-04T07:05:21Z</time>
      </trkpt>
      <trkpt lat="45.26357" lon="4.60854">
        <ele>755</ele>
        <time>2021-06-04T07:05:59Z</time>
      </trkpt>
      <trkpt lat="45.26378" lon="4.60877">
        <ele>756</ele>
        <time>2021-06-04T07:06:35Z</time>
      </trkpt>
      <trkpt lat="45.26383" lon="4.6089">
        <ele>756</ele>
        <time>2021-06-04T07:06:48Z</time>
      </trkpt>
      <trkpt lat="45.26391" lon="4.60898">
        <ele>757</ele>
        <time>2021-06-04T07:07:02Z</time>
      </trkpt>
      <trkpt lat="45.26401" lon="4.60919">
        <ele>756</ele>
        <time>2021-06-04T07:07:25Z</time>
      </trkpt>
      <trkpt lat="45.2641" lon="4.60931">
        <ele>756</ele>
        <time>2021-06-04T07:07:42Z</time>
      </trkpt>
      <trkpt lat="45.26427" lon="4.60946">
        <ele>756</ele>
        <time>2021-06-04T07:08:09Z</time>
      </trkpt>
      <trkpt lat="45.26442" lon="4.6095">
        <ele>757</ele>
        <time>2021-06-04T07:08:29Z</time>
      </trkpt>
      <trkpt lat="45.26486" lon="4.60949">
        <ele>762</ele>
        <time>2021-06-04T07:09:28Z</time>
      </trkpt>
      <trkpt lat="45.26499" lon="4.60944">
        <ele>764</ele>
        <time>2021-06-04T07:09:46Z</time>
      </trkpt>
      <trkpt lat="45.26518" lon="4.60932">
        <ele>766</ele>
        <time>2021-06-04T07:10:13Z</time>
      </trkpt>
      <trkpt lat="45.26531" lon="4.6092">
        <ele>768</ele>
        <time>2021-06-04T07:10:34Z</time>
      </trkpt>
      <trkpt lat="45.26569" lon="4.60881">
        <ele>773</ele>
        <time>2021-06-04T07:11:37Z</time>
      </trkpt>
      <trkpt lat="45.26603" lon="4.60837">
        <ele>777</ele>
        <time>2021-06-04T07:12:38Z</time>
      </trkpt>
      <trkpt lat="45.26626" lon="4.60797">
        <ele>780</ele>
        <time>2021-06-04T07:13:26Z</time>
      </trkpt>
      <trkpt lat="45.26647" lon="4.60771">
        <ele>780</ele>
        <time>2021-06-04T07:14:04Z</time>
      </trkpt>
      <trkpt lat="45.26655" lon="4.60755">
        <ele>781</ele>
        <time>2021-06-04T07:14:22Z</time>
      </trkpt>
      <trkpt lat="45.26679" lon="4.6068">
        <ele>792</ele>
        <time>2021-06-04T07:15:39Z</time>
      </trkpt>
      <trkpt lat="45.26691" lon="4.60649">
        <ele>796</ele>
        <time>2021-06-04T07:16:13Z</time>
      </trkpt>
      <trkpt lat="45.26704" lon="4.60621">
        <ele>799</ele>
        <time>2021-06-04T07:16:44Z</time>
      </trkpt>
      <trkpt lat="45.26767" lon="4.60517">
        <ele>808</ele>
        <time>2021-06-04T07:18:53Z</time>
      </trkpt>
      <trkpt lat="45.26781" lon="4.60498">
        <ele>810</ele>
        <time>2021-06-04T07:19:19Z</time>
      </trkpt>
      <trkpt lat="45.26822" lon="4.60448">
        <ele>815</ele>
        <time>2021-06-04T07:20:31Z</time>
      </trkpt>
      <trkpt lat="45.269" lon="4.60366">
        <ele>821</ele>
        <time>2021-06-04T07:22:40Z</time>
      </trkpt>
      <trkpt lat="45.26926" lon="4.60336">
        <ele>824</ele>
        <time>2021-06-04T07:23:25Z</time>
      </trkpt>
      <trkpt lat="45.26957" lon="4.60296">
        <ele>830</ele>
        <time>2021-06-04T07:24:21Z</time>
      </trkpt>
      <trkpt lat="45.26967" lon="4.60279">
        <ele>833</ele>
        <time>2021-06-04T07:24:42Z</time>
      </trkpt>
      <trkpt lat="45.26974" lon="4.60271">
        <ele>834</ele>
        <time>2021-06-04T07:24:54Z</time>
      </trkpt>
      <trkpt lat="45.26984" lon="4.60264">
        <ele>834</ele>
        <time>2021-06-04T07:25:09Z</time>
      </trkpt>
      <trkpt lat="45.26994" lon="4.60253">
        <ele>835</ele>
        <time>2021-06-04T07:25:26Z</time>
      </trkpt>
      <trkpt lat="45.27005" lon="4.6023">
        <ele>839</ele>
        <time>2021-06-04T07:25:52Z</time>
      </trkpt>
      <trkpt lat="45.2703" lon="4.60161">
        <ele>849</ele>
        <time>2021-06-04T07:27:05Z</time>
      </trkpt>
      <trkpt lat="45.27034" lon="4.6014">
        <ele>851</ele>
        <time>2021-06-04T07:27:25Z</time>
      </trkpt>
      <trkpt lat="45.27034" lon="4.60131">
        <ele>852</ele>
        <time>2021-06-04T07:27:33Z</time>
      </trkpt>
      <trkpt lat="45.27031" lon="4.60107">
        <ele>855</ele>
        <time>2021-06-04T07:27:56Z</time>
      </trkpt>
      <trkpt lat="45.27026" lon="4.60099">
        <ele>856</ele>
        <time>2021-06-04T07:28:06Z</time>
      </trkpt>
      <trkpt lat="45.27021" lon="4.60083">
        <ele>859</ele>
        <time>2021-06-04T07:28:23Z</time>
      </trkpt>
      <trkpt lat="45.27006" lon="4.60062">
        <ele>861</ele>
        <time>2021-06-04T07:28:51Z</time>
      </trkpt>
      <trkpt lat="45.2699" lon="4.60054">
        <ele>863</ele>
        <time>2021-06-04T07:29:14Z</time>
      </trkpt>
      <trkpt lat="45.26965" lon="4.60068">
        <ele>867</ele>
        <time>2021-06-04T07:29:49Z</time>
      </trkpt>
      <trkpt lat="45.2695" lon="4.60067">
        <ele>869</ele>
        <time>2021-06-04T07:30:10Z</time>
      </trkpt>
      <trkpt lat="45.26925" lon="4.60089">
        <ele>872</ele>
        <time>2021-06-04T07:30:49Z</time>
      </trkpt>
      <trkpt lat="45.26915" lon="4.60096">
        <ele>872</ele>
        <time>2021-06-04T07:31:04Z</time>
      </trkpt>
      <trkpt lat="45.26906" lon="4.60099">
        <ele>873</ele>
        <time>2021-06-04T07:31:16Z</time>
      </trkpt>
      <trkpt lat="45.26897" lon="4.60097">
        <ele>875</ele>
        <time>2021-06-04T07:31:28Z</time>
      </trkpt>
      <trkpt lat="45.2689" lon="4.60103">
        <ele>875</ele>
        <time>2021-06-04T07:31:39Z</time>
      </trkpt>
      <trkpt lat="45.26885" lon="4.60102">
        <ele>876</ele>
        <time>2021-06-04T07:31:46Z</time>
      </trkpt>
      <trkpt lat="45.26878" lon="4.60094">
        <ele>878</ele>
        <time>2021-06-04T07:31:58Z</time>
      </trkpt>
      <trkpt lat="45.26871" lon="4.60095">
        <ele>879</ele>
        <time>2021-06-04T07:32:07Z</time>
      </trkpt>
      <trkpt lat="45.26862" lon="4.60092">
        <ele>880</ele>
        <time>2021-06-04T07:32:19Z</time>
      </trkpt>
      <trkpt lat="45.26844" lon="4.60099">
        <ele>882</ele>
        <time>2021-06-04T07:32:44Z</time>
      </trkpt>
      <trkpt lat="45.26839" lon="4.60104">
        <ele>882</ele>
        <time>2021-06-04T07:32:53Z</time>
      </trkpt>
      <trkpt lat="45.26833" lon="4.60108">
        <ele>883</ele>
        <time>2021-06-04T07:33:01Z</time>
      </trkpt>
      <trkpt lat="45.26815" lon="4.60112">
        <ele>886</ele>
        <time>2021-06-04T07:33:26Z</time>
      </trkpt>
      <trkpt lat="45.26809" lon="4.60116">
        <ele>886</ele>
        <time>2021-06-04T07:33:35Z</time>
      </trkpt>
      <trkpt lat="45.26799" lon="4.60114">
        <ele>888</ele>
        <time>2021-06-04T07:33:48Z</time>
      </trkpt>
      <trkpt lat="45.26786" lon="4.60118">
        <ele>890</ele>
        <time>2021-06-04T07:34:06Z</time>
      </trkpt>
      <trkpt lat="45.26781" lon="4.60122">
        <ele>891</ele>
        <time>2021-06-04T07:34:13Z</time>
      </trkpt>
      <trkpt lat="45.2677" lon="4.60125">
        <ele>893</ele>
        <time>2021-06-04T07:34:28Z</time>
      </trkpt>
      <trkpt lat="45.26752" lon="4.60134">
        <ele>895</ele>
        <time>2021-06-04T07:34:54Z</time>
      </trkpt>
      <trkpt lat="45.26744" lon="4.60135">
        <ele>896</ele>
        <time>2021-06-04T07:35:05Z</time>
      </trkpt>
      <trkpt lat="45.26734" lon="4.60141">
        <ele>898</ele>
        <time>2021-06-04T07:35:19Z</time>
      </trkpt>
      <trkpt lat="45.26715" lon="4.60145">
        <ele>900</ele>
        <time>2021-06-04T07:35:45Z</time>
      </trkpt>
      <trkpt lat="45.26705" lon="4.60143">
        <ele>901</ele>
        <time>2021-06-04T07:35:58Z</time>
      </trkpt>
      <trkpt lat="45.26704" lon="4.60135">
        <ele>901</ele>
        <time>2021-06-04T07:36:06Z</time>
      </trkpt>
      <trkpt lat="45.26705" lon="4.60143">
        <ele>901</ele>
        <time>2021-06-04T07:36:13Z</time>
      </trkpt>
      <trkpt lat="45.26715" lon="4.60145">
        <ele>900</ele>
        <time>2021-06-04T07:36:27Z</time>
      </trkpt>
      <trkpt lat="45.26734" lon="4.60141">
        <ele>898</ele>
        <time>2021-06-04T07:36:53Z</time>
      </trkpt>
      <trkpt lat="45.26744" lon="4.60135">
        <ele>896</ele>
        <time>2021-06-04T07:37:07Z</time>
      </trkpt>
      <trkpt lat="45.26752" lon="4.60134">
        <ele>895</ele>
        <time>2021-06-04T07:37:18Z</time>
      </trkpt>
      <trkpt lat="45.2677" lon="4.60125">
        <ele>893</ele>
        <time>2021-06-04T07:37:43Z</time>
      </trkpt>
      <trkpt lat="45.26781" lon="4.60122">
        <ele>891</ele>
        <time>2021-06-04T07:37:58Z</time>
      </trkpt>
      <trkpt lat="45.26786" lon="4.60118">
        <ele>890</ele>
        <time>2021-06-04T07:38:06Z</time>
      </trkpt>
      <trkpt lat="45.26799" lon="4.60114">
        <ele>888</ele>
        <time>2021-06-04T07:38:24Z</time>
      </trkpt>
      <trkpt lat="45.26809" lon="4.60116">
        <ele>886</ele>
        <time>2021-06-04T07:38:37Z</time>
      </trkpt>
      <trkpt lat="45.26815" lon="4.60112">
        <ele>886</ele>
        <time>2021-06-04T07:38:46Z</time>
      </trkpt>
      <trkpt lat="45.26833" lon="4.60108">
        <ele>883</ele>
        <time>2021-06-04T07:39:10Z</time>
      </trkpt>
      <trkpt lat="45.26839" lon="4.60104">
        <ele>882</ele>
        <time>2021-06-04T07:39:19Z</time>
      </trkpt>
      <trkpt lat="45.26844" lon="4.60099">
        <ele>882</ele>
        <time>2021-06-04T07:39:27Z</time>
      </trkpt>
      <trkpt lat="45.26862" lon="4.60092">
        <ele>880</ele>
        <time>2021-06-04T07:39:52Z</time>
      </trkpt>
      <trkpt lat="45.26871" lon="4.60095">
        <ele>879</ele>
        <time>2021-06-04T07:40:04Z</time>
      </trkpt>
      <trkpt lat="45.26878" lon="4.60094">
        <ele>878</ele>
        <time>2021-06-04T07:40:14Z</time>
      </trkpt>
      <trkpt lat="45.26885" lon="4.60102">
        <ele>876</ele>
        <time>2021-06-04T07:40:26Z</time>
      </trkpt>
      <trkpt lat="45.2689" lon="4.60103">
        <ele>875</ele>
        <time>2021-06-04T07:40:33Z</time>
      </trkpt>
      <trkpt lat="45.26897" lon="4.60097">
        <ele>875</ele>
        <time>2021-06-04T07:40:43Z</time>
      </trkpt>
      <trkpt lat="45.26906" lon="4.60099">
        <ele>873</ele>
        <time>2021-06-04T07:40:56Z</time>
      </trkpt>
      <trkpt lat="45.26915" lon="4.60096">
        <ele>872</ele>
        <time>2021-06-04T07:41:08Z</time>
      </trkpt>
      <trkpt lat="45.26925" lon="4.60089">
        <ele>872</ele>
        <time>2021-06-04T07:41:23Z</time>
      </trkpt>
      <trkpt lat="45.2695" lon="4.60067">
        <ele>869</ele>
        <time>2021-06-04T07:42:02Z</time>
      </trkpt>
      <trkpt lat="45.26965" lon="4.60068">
        <ele>867</ele>
        <time>2021-06-04T07:42:22Z</time>
      </trkpt>
      <trkpt lat="45.2699" lon="4.60054">
        <ele>863</ele>
        <time>2021-06-04T07:42:58Z</time>
      </trkpt>
      <trkpt lat="45.27006" lon="4.60062">
        <ele>861</ele>
        <time>2021-06-04T07:43:21Z</time>
      </trkpt>
      <trkpt lat="45.27021" lon="4.60083">
        <ele>859</ele>
        <time>2021-06-04T07:43:49Z</time>
      </trkpt>
      <trkpt lat="45.27026" lon="4.60099">
        <ele>856</ele>
        <time>2021-06-04T07:44:05Z</time>
      </trkpt>
      <trkpt lat="45.27031" lon="4.60107">
        <ele>855</ele>
        <time>2021-06-04T07:44:15Z</time>
      </trkpt>
      <trkpt lat="45.27034" lon="4.60131">
        <ele>852</ele>
        <time>2021-06-04T07:44:38Z</time>
      </trkpt>
      <trkpt lat="45.27034" lon="4.6014">
        <ele>851</ele>
        <time>2021-06-04T07:44:47Z</time>
      </trkpt>
      <trkpt lat="45.2703" lon="4.60161">
        <ele>849</ele>
        <time>2021-06-04T07:45:07Z</time>
      </trkpt>
      <trkpt lat="45.27005" lon="4.6023">
        <ele>839</ele>
        <time>2021-06-04T07:46:20Z</time>
      </trkpt>
      <trkpt lat="45.26994" lon="4.60253">
        <ele>835</ele>
        <time>2021-06-04T07:46:46Z</time>
      </trkpt>
      <trkpt lat="45.27021" lon="4.60244">
        <ele>835</ele>
        <time>2021-06-04T07:47:23Z</time>
      </trkpt>
      <trkpt lat="45.27047" lon="4.60227">
        <ele>837</ele>
        <time>2021-06-04T07:48:01Z</time>
      </trkpt>
      <trkpt lat="45.27052" lon="4.60227">
        <ele>836</ele>
        <time>2021-06-04T07:48:08Z</time>
      </trkpt>
      <trkpt lat="45.2706" lon="4.6022">
        <ele>837</ele>
        <time>2021-06-04T07:48:20Z</time>
      </trkpt>
      <trkpt lat="45.27052" lon="4.60227">
        <ele>836</ele>
        <time>2021-06-04T07:48:33Z</time>
      </trkpt>
      <trkpt lat="45.27017" lon="4.60271">
        <ele>830</ele>
        <time>2021-06-04T07:49:35Z</time>
      </trkpt>
      <trkpt lat="45.26999" lon="4.60282">
        <ele>828</ele>
        <time>2021-06-04T07:50:01Z</time>
      </trkpt>
      <trkpt lat="45.26981" lon="4.60309">
        <ele>825</ele>
        <time>2021-06-04T07:50:36Z</time>
      </trkpt>
      <trkpt lat="45.26967" lon="4.60337">
        <ele>820</ele>
        <time>2021-06-04T07:51:09Z</time>
      </trkpt>
      <trkpt lat="45.2695" lon="4.60359">
        <ele>817</ele>
        <time>2021-06-04T07:51:39Z</time>
      </trkpt>
      <trkpt lat="45.26936" lon="4.60393">
        <ele>810</ele>
        <time>2021-06-04T07:52:16Z</time>
      </trkpt>
      <trkpt lat="45.26922" lon="4.60414">
        <ele>807</ele>
        <time>2021-06-04T07:52:43Z</time>
      </trkpt>
      <trkpt lat="45.2688" lon="4.60472">
        <ele>800</ele>
        <time>2021-06-04T07:54:02Z</time>
      </trkpt>
      <trkpt lat="45.26854" lon="4.60502">
        <ele>797</ele>
        <time>2021-06-04T07:54:46Z</time>
      </trkpt>
      <trkpt lat="45.26828" lon="4.60529">
        <ele>794</ele>
        <time>2021-06-04T07:55:29Z</time>
      </trkpt>
      <trkpt lat="45.26803" lon="4.60558">
        <ele>792</ele>
        <time>2021-06-04T07:56:12Z</time>
      </trkpt>
      <trkpt lat="45.26784" lon="4.60588">
        <ele>788</ele>
        <time>2021-06-04T07:56:50Z</time>
      </trkpt>
      <trkpt lat="45.2673" lon="4.60687">
        <ele>776</ele>
        <time>2021-06-04T07:58:48Z</time>
      </trkpt>
      <trkpt lat="45.26721" lon="4.6072">
        <ele>772</ele>
        <time>2021-06-04T07:59:21Z</time>
      </trkpt>
      <trkpt lat="45.26704" lon="4.60809">
        <ele>758</ele>
        <time>2021-06-04T08:00:48Z</time>
      </trkpt>
      <trkpt lat="45.26687" lon="4.60855">
        <ele>756</ele>
        <time>2021-06-04T08:01:37Z</time>
      </trkpt>
      <trkpt lat="45.26678" lon="4.60893">
        <ele>757</ele>
        <time>2021-06-04T08:02:14Z</time>
      </trkpt>
      <trkpt lat="45.26665" lon="4.60925">
        <ele>758</ele>
        <time>2021-06-04T08:02:49Z</time>
      </trkpt>
      <trkpt lat="45.26658" lon="4.6098">
        <ele>751</ele>
        <time>2021-06-04T08:03:41Z</time>
      </trkpt>
      <trkpt lat="45.26653" lon="4.61038">
        <ele>744</ele>
        <time>2021-06-04T08:04:36Z</time>
      </trkpt>
      <trkpt lat="45.26649" lon="4.61055">
        <ele>743</ele>
        <time>2021-06-04T08:04:53Z</time>
      </trkpt>
      <trkpt lat="45.26633" lon="4.61075">
        <ele>741</ele>
        <time>2021-06-04T08:05:22Z</time>
      </trkpt>
      <trkpt lat="45.26624" lon="4.61104">
        <ele>737</ele>
        <time>2021-06-04T08:05:51Z</time>
      </trkpt>
      <trkpt lat="45.26612" lon="4.61124">
        <ele>734</ele>
        <time>2021-06-04T08:06:16Z</time>
      </trkpt>
      <trkpt lat="45.26607" lon="4.61157">
        <ele>729</ele>
        <time>2021-06-04T08:06:48Z</time>
      </trkpt>
      <trkpt lat="45.26601" lon="4.61182">
        <ele>726</ele>
        <time>2021-06-04T08:07:12Z</time>
      </trkpt>
      <trkpt lat="45.266" lon="4.6121">
        <ele>724</ele>
        <time>2021-06-04T08:07:39Z</time>
      </trkpt>
      <trkpt lat="45.26594" lon="4.61268">
        <ele>721</ele>
        <time>2021-06-04T08:08:34Z</time>
      </trkpt>
      <trkpt lat="45.26583" lon="4.61308">
        <ele>722</ele>
        <time>2021-06-04T08:09:14Z</time>
      </trkpt>
      <trkpt lat="45.26559" lon="4.61368">
        <ele>716</ele>
        <time>2021-06-04T08:10:19Z</time>
      </trkpt>
      <trkpt lat="45.26553" lon="4.61388">
        <ele>715</ele>
        <time>2021-06-04T08:10:39Z</time>
      </trkpt>
      <trkpt lat="45.26549" lon="4.61438">
        <ele>714</ele>
        <time>2021-06-04T08:11:27Z</time>
      </trkpt>
      <trkpt lat="45.26546" lon="4.61457">
        <ele>713</ele>
        <time>2021-06-04T08:11:45Z</time>
      </trkpt>
      <trkpt lat="45.26543" lon="4.61473">
        <ele>712</ele>
        <time>2021-06-04T08:12:01Z</time>
      </trkpt>
      <trkpt lat="45.26536" lon="4.61494">
        <ele>710</ele>
        <time>2021-06-04T08:12:22Z</time>
      </trkpt>
      <trkpt lat="45.26527" lon="4.61547">
        <ele>710</ele>
        <time>2021-06-04T08:13:14Z</time>
      </trkpt>
      <trkpt lat="45.26522" lon="4.61559">
        <ele>709</ele>
        <time>2021-06-04T08:13:27Z</time>
      </trkpt>
      <trkpt lat="45.26518" lon="4.61566">
        <ele>708</ele>
        <time>2021-06-04T08:13:35Z</time>
      </trkpt>
      <trkpt lat="45.26514" lon="4.61569">
        <ele>707</ele>
        <time>2021-06-04T08:13:41Z</time>
      </trkpt>
      <trkpt lat="45.26489" lon="4.6157">
        <ele>699</ele>
        <time>2021-06-04T08:14:15Z</time>
      </trkpt>
      <trkpt lat="45.26464" lon="4.61585">
        <ele>693</ele>
        <time>2021-06-04T08:14:51Z</time>
      </trkpt>
      <trkpt lat="45.26443" lon="4.6162">
        <ele>689</ele>
        <time>2021-06-04T08:15:34Z</time>
      </trkpt>
      <trkpt lat="45.26435" lon="4.61659">
        <ele>689</ele>
        <time>2021-06-04T08:16:12Z</time>
      </trkpt>
      <trkpt lat="45.26432" lon="4.61689">
        <ele>687</ele>
        <time>2021-06-04T08:16:41Z</time>
      </trkpt>
      <trkpt lat="45.26431" lon="4.61717">
        <ele>686</ele>
        <time>2021-06-04T08:17:07Z</time>
      </trkpt>
      <trkpt lat="45.26436" lon="4.61758">
        <ele>685</ele>
        <time>2021-06-04T08:17:46Z</time>
      </trkpt>
      <trkpt lat="45.26461" lon="4.61847">
        <ele>691</ele>
        <time>2021-06-04T08:19:16Z</time>
      </trkpt>
      <trkpt lat="45.26461" lon="4.61861">
        <ele>693</ele>
        <time>2021-06-04T08:19:29Z</time>
      </trkpt>
      <trkpt lat="45.26459" lon="4.61865">
        <ele>693</ele>
        <time>2021-06-04T08:19:34Z</time>
      </trkpt>
      <trkpt lat="45.26435" lon="4.61878">
        <ele>690</ele>
        <time>2021-06-04T08:20:08Z</time>
      </trkpt>
      <trkpt lat="45.26416" lon="4.61874">
        <ele>685</ele>
        <time>2021-06-04T08:20:34Z</time>
      </trkpt>
      <trkpt lat="45.26314" lon="4.61868">
        <ele>669</ele>
        <time>2021-06-04T08:22:50Z</time>
      </trkpt>
      <trkpt lat="45.26306" lon="4.61863">
        <ele>666</ele>
        <time>2021-06-04T08:23:02Z</time>
      </trkpt>
      <trkpt lat="45.26269" lon="4.61876">
        <ele>661</ele>
        <time>2021-06-04T08:23:52Z</time>
      </trkpt>
      <trkpt lat="45.26217" lon="4.61908">
        <ele>652</ele>
        <time>2021-06-04T08:25:08Z</time>
      </trkpt>
      <trkpt lat="45.26194" lon="4.61942">
        <ele>649</ele>
        <time>2021-06-04T08:25:52Z</time>
      </trkpt>
      <trkpt lat="45.26173" lon="4.6198">
        <ele>648</ele>
        <time>2021-06-04T08:26:38Z</time>
      </trkpt>
      <trkpt lat="45.26141" lon="4.62053">
        <ele>650</ele>
        <time>2021-06-04T08:27:59Z</time>
      </trkpt>
      <trkpt lat="45.26131" lon="4.62057">
        <ele>650</ele>
        <time>2021-06-04T08:28:12Z</time>
      </trkpt>
      <trkpt lat="45.26107" lon="4.62051">
        <ele>645</ele>
        <time>2021-06-04T08:28:45Z</time>
      </trkpt>
      <trkpt lat="45.26095" lon="4.62053">
        <ele>644</ele>
        <time>2021-06-04T08:29:01Z</time>
      </trkpt>
      <trkpt lat="45.26018" lon="4.62081">
        <ele>638</ele>
        <time>2021-06-04T08:30:47Z</time>
      </trkpt>
      <trkpt lat="45.26008" lon="4.62089">
        <ele>638</ele>
        <time>2021-06-04T08:31:02Z</time>
      </trkpt>
      <trkpt lat="45.25995" lon="4.62106">
        <ele>637</ele>
        <time>2021-06-04T08:31:26Z</time>
      </trkpt>
      <trkpt lat="45.25979" lon="4.62136">
        <ele>635</ele>
        <time>2021-06-04T08:32:01Z</time>
      </trkpt>
      <trkpt lat="45.25969" lon="4.62175">
        <ele>635</ele>
        <time>2021-06-04T08:32:40Z</time>
      </trkpt>
      <trkpt lat="45.25953" lon="4.62287">
        <ele>634</ele>
        <time>2021-06-04T08:34:28Z</time>
      </trkpt>
      <trkpt lat="45.25938" lon="4.62356">
        <ele>632</ele>
        <time>2021-06-04T08:35:36Z</time>
      </trkpt>
      <trkpt lat="45.25932" lon="4.6238">
        <ele>632</ele>
        <time>2021-06-04T08:35:59Z</time>
      </trkpt>
      <trkpt lat="45.25916" lon="4.62421">
        <ele>633</ele>
        <time>2021-06-04T08:36:43Z</time>
      </trkpt>
      <trkpt lat="45.25904" lon="4.62456">
        <ele>632</ele>
        <time>2021-06-04T08:37:20Z</time>
      </trkpt>
      <trkpt lat="45.25894" lon="4.62503">
        <ele>632</ele>
        <time>2021-06-04T08:38:06Z</time>
      </trkpt>
      <trkpt lat="45.25895" lon="4.62518">
        <ele>630</ele>
        <time>2021-06-04T08:38:20Z</time>
      </trkpt>
      <trkpt lat="45.25893" lon="4.62532">
        <ele>628</ele>
        <time>2021-06-04T08:38:34Z</time>
      </trkpt>
      <trkpt lat="45.25888" lon="4.62547">
        <ele>626</ele>
        <time>2021-06-04T08:38:49Z</time>
      </trkpt>
      <trkpt lat="45.25876" lon="4.6256">
        <ele>624</ele>
        <time>2021-06-04T08:39:09Z</time>
      </trkpt>
      <trkpt lat="45.25847" lon="4.62613">
        <ele>618</ele>
        <time>2021-06-04T08:40:13Z</time>
      </trkpt>
      <trkpt lat="45.25831" lon="4.62669">
        <ele>614</ele>
        <time>2021-06-04T08:41:09Z</time>
      </trkpt>
      <trkpt lat="45.25828" lon="4.62666">
        <ele>614</ele>
        <time>2021-06-04T08:41:14Z</time>
      </trkpt>
      <trkpt lat="45.25831" lon="4.62669">
        <ele>614</ele>
        <time>2021-06-04T08:41:19Z</time>
      </trkpt>
      <trkpt lat="45.25784" lon="4.62672">
        <ele>613</ele>
        <time>2021-06-04T08:42:22Z</time>
      </trkpt>
      <trkpt lat="45.25753" lon="4.62686">
        <ele>614</ele>
        <time>2021-06-04T08:43:05Z</time>
      </trkpt>
      <trkpt lat="45.25743" lon="4.62685">
        <ele>614</ele>
        <time>2021-06-04T08:43:19Z</time>
      </trkpt>
      <trkpt lat="45.25716" lon="4.62671">
        <ele>613</ele>
        <time>2021-06-04T08:43:57Z</time>
      </trkpt>
      <trkpt lat="45.25689" lon="4.62662">
        <ele>612</ele>
        <time>2021-06-04T08:44:34Z</time>
      </trkpt>
      <trkpt lat="45.25651" lon="4.62653">
        <ele>611</ele>
        <time>2021-06-04T08:45:25Z</time>
      </trkpt>
      <trkpt lat="45.25597" lon="4.62654">
        <ele>614</ele>
        <time>2021-06-04T08:46:37Z</time>
      </trkpt>
      <trkpt lat="45.25575" lon="4.62658">
        <ele>615</ele>
        <time>2021-06-04T08:47:07Z</time>
      </trkpt>
      <trkpt lat="45.25558" lon="4.62667">
        <ele>615</ele>
        <time>2021-06-04T08:47:31Z</time>
      </trkpt>
      <trkpt lat="45.25535" lon="4.62687">
        <ele>615</ele>
        <time>2021-06-04T08:48:07Z</time>
      </trkpt>
      <trkpt lat="45.25516" lon="4.62722">
        <ele>615</ele>
        <time>2021-06-04T08:48:49Z</time>
      </trkpt>
      <trkpt lat="45.25502" lon="4.62763">
        <ele>614</ele>
        <time>2021-06-04T08:49:32Z</time>
      </trkpt>
      <trkpt lat="45.25492" lon="4.628">
        <ele>609</ele>
        <time>2021-06-04T08:50:09Z</time>
      </trkpt>
      <trkpt lat="45.2549" lon="4.62814">
        <ele>608</ele>
        <time>2021-06-04T08:50:22Z</time>
      </trkpt>
      <trkpt lat="45.25491" lon="4.62829">
        <ele>608</ele>
        <time>2021-06-04T08:50:36Z</time>
      </trkpt>
      <trkpt lat="45.25501" lon="4.6287">
        <ele>604</ele>
        <time>2021-06-04T08:51:17Z</time>
      </trkpt>
      <trkpt lat="45.25528" lon="4.62945">
        <ele>600</ele>
        <time>2021-06-04T08:52:36Z</time>
      </trkpt>
      <trkpt lat="45.25539" lon="4.62989">
        <ele>596</ele>
        <time>2021-06-04T08:53:20Z</time>
      </trkpt>
      <trkpt lat="45.25544" lon="4.63033">
        <ele>592</ele>
        <time>2021-06-04T08:54:02Z</time>
      </trkpt>
      <trkpt lat="45.25557" lon="4.63062">
        <ele>591</ele>
        <time>2021-06-04T08:54:34Z</time>
      </trkpt>
      <trkpt lat="45.25561" lon="4.63086">
        <ele>590</ele>
        <time>2021-06-04T08:54:58Z</time>
      </trkpt>
      <trkpt lat="45.25557" lon="4.63104">
        <ele>588</ele>
        <time>2021-06-04T08:55:15Z</time>
      </trkpt>
      <trkpt lat="45.2554" lon="4.63136">
        <ele>583</ele>
        <time>2021-06-04T08:55:53Z</time>
      </trkpt>
      <trkpt lat="45.25536" lon="4.63153">
        <ele>581</ele>
        <time>2021-06-04T08:56:10Z</time>
      </trkpt>
      <trkpt lat="45.25536" lon="4.63176">
        <ele>580</ele>
        <time>2021-06-04T08:56:31Z</time>
      </trkpt>
      <trkpt lat="45.2554" lon="4.63208">
        <ele>579</ele>
        <time>2021-06-04T08:57:02Z</time>
      </trkpt>
      <trkpt lat="45.25542" lon="4.63281">
        <ele>575</ele>
        <time>2021-06-04T08:58:11Z</time>
      </trkpt>
      <trkpt lat="45.25535" lon="4.63302">
        <ele>574</ele>
        <time>2021-06-04T08:58:32Z</time>
      </trkpt>
      <trkpt lat="45.25524" lon="4.63312">
        <ele>573</ele>
        <time>2021-06-04T08:58:50Z</time>
      </trkpt>
      <trkpt lat="45.25512" lon="4.63315">
        <ele>572</ele>
        <time>2021-06-04T08:59:06Z</time>
      </trkpt>
      <trkpt lat="45.25478" lon="4.63302">
        <ele>572</ele>
        <time>2021-06-04T08:59:53Z</time>
      </trkpt>
      <trkpt lat="45.25439" lon="4.63292">
        <ele>574</ele>
        <time>2021-06-04T09:00:46Z</time>
      </trkpt>
      <trkpt lat="45.25398" lon="4.63277">
        <ele>575</ele>
        <time>2021-06-04T09:01:42Z</time>
      </trkpt>
      <trkpt lat="45.25366" lon="4.63262">
        <ele>576</ele>
        <time>2021-06-04T09:02:27Z</time>
      </trkpt>
      <trkpt lat="45.25318" lon="4.63233">
        <ele>577</ele>
        <time>2021-06-04T09:03:37Z</time>
      </trkpt>
      <trkpt lat="45.25293" lon="4.63224">
        <ele>580</ele>
        <time>2021-06-04T09:04:11Z</time>
      </trkpt>
      <trkpt lat="45.25174" lon="4.63142">
        <ele>584</ele>
        <time>2021-06-04T09:07:08Z</time>
      </trkpt>
      <trkpt lat="45.25114" lon="4.63115">
        <ele>584</ele>
        <time>2021-06-04T09:08:32Z</time>
      </trkpt>
      <trkpt lat="45.2508" lon="4.6311">
        <ele>586</ele>
        <time>2021-06-04T09:09:17Z</time>
      </trkpt>
      <trkpt lat="45.25065" lon="4.63106">
        <ele>585</ele>
        <time>2021-06-04T09:09:38Z</time>
      </trkpt>
      <trkpt lat="45.2505" lon="4.63119">
        <ele>585</ele>
        <time>2021-06-04T09:10:01Z</time>
      </trkpt>
      <trkpt lat="45.25024" lon="4.63158">
        <ele>584</ele>
        <time>2021-06-04T09:10:52Z</time>
      </trkpt>
      <trkpt lat="45.25011" lon="4.63188">
        <ele>581</ele>
        <time>2021-06-04T09:11:25Z</time>
      </trkpt>
      <trkpt lat="45.25006" lon="4.63209">
        <ele>578</ele>
        <time>2021-06-04T09:11:46Z</time>
      </trkpt>
      <trkpt lat="45.25008" lon="4.63233">
        <ele>575</ele>
        <time>2021-06-04T09:12:08Z</time>
      </trkpt>
      <trkpt lat="45.25029" lon="4.63281">
        <ele>572</ele>
        <time>2021-06-04T09:13:01Z</time>
      </trkpt>
      <trkpt lat="45.2506" lon="4.63339">
        <ele>570</ele>
        <time>2021-06-04T09:14:10Z</time>
      </trkpt>
      <trkpt lat="45.2507" lon="4.63366">
        <ele>570</ele>
        <time>2021-06-04T09:14:39Z</time>
      </trkpt>
      <trkpt lat="45.25074" lon="4.63391">
        <ele>568</ele>
        <time>2021-06-04T09:15:03Z</time>
      </trkpt>
      <trkpt lat="45.25075" lon="4.63416">
        <ele>566</ele>
        <time>2021-06-04T09:15:26Z</time>
      </trkpt>
      <trkpt lat="45.25067" lon="4.63447">
        <ele>563</ele>
        <time>2021-06-04T09:15:57Z</time>
      </trkpt>
      <trkpt lat="45.25051" lon="4.63535">
        <ele>554</ele>
        <time>2021-06-04T09:17:23Z</time>
      </trkpt>
      <trkpt lat="45.25042" lon="4.63537">
        <ele>552</ele>
        <time>2021-06-04T09:17:35Z</time>
      </trkpt>
      <trkpt lat="45.25002" lon="4.63562">
        <ele>541</ele>
        <time>2021-06-04T09:18:33Z</time>
      </trkpt>
      <trkpt lat="45.24979" lon="4.63573">
        <ele>536</ele>
        <time>2021-06-04T09:19:05Z</time>
      </trkpt>
      <trkpt lat="45.24965" lon="4.63587">
        <ele>532</ele>
        <time>2021-06-04T09:19:28Z</time>
      </trkpt>
      <trkpt lat="45.2496" lon="4.63602">
        <ele>531</ele>
        <time>2021-06-04T09:19:44Z</time>
      </trkpt>
      <trkpt lat="45.24932" lon="4.6367">
        <ele>523</ele>
        <time>2021-06-04T09:20:58Z</time>
      </trkpt>
      <trkpt lat="45.24914" lon="4.63697">
        <ele>519</ele>
        <time>2021-06-04T09:21:33Z</time>
      </trkpt>
      <trkpt lat="45.24891" lon="4.63748">
        <ele>515</ele>
        <time>2021-06-04T09:22:30Z</time>
      </trkpt>
      <trkpt lat="45.24852" lon="4.63809">
        <ele>512</ele>
        <time>2021-06-04T09:23:47Z</time>
      </trkpt>
      <trkpt lat="45.24838" lon="4.63816">
        <ele>511</ele>
        <time>2021-06-04T09:24:07Z</time>
      </trkpt>
      <trkpt lat="45.2484" lon="4.63808">
        <ele>511</ele>
        <time>2021-06-04T09:24:15Z</time>
      </trkpt>
      <trkpt lat="45.2483" lon="4.63741">
        <ele>508</ele>
        <time>2021-06-04T09:25:19Z</time>
      </trkpt>
      <trkpt lat="45.24818" lon="4.63707">
        <ele>506</ele>
        <time>2021-06-04T09:25:55Z</time>
      </trkpt>
      <trkpt lat="45.24819" lon="4.63641">
        <ele>506</ele>
        <time>2021-06-04T09:26:57Z</time>
      </trkpt>
      <trkpt lat="45.24816" lon="4.63624">
        <ele>506</ele>
        <time>2021-06-04T09:27:13Z</time>
      </trkpt>
      <trkpt lat="45.24808" lon="4.63612">
        <ele>506</ele>
        <time>2021-06-04T09:27:29Z</time>
      </trkpt>
      <trkpt lat="45.24762" lon="4.63555">
        <ele>504</ele>
        <time>2021-06-04T09:28:50Z</time>
      </trkpt>
      <trkpt lat="45.2473" lon="4.63509">
        <ele>504</ele>
        <time>2021-06-04T09:29:51Z</time>
      </trkpt>
      <trkpt lat="45.24727" lon="4.63496">
        <ele>505</ele>
        <time>2021-06-04T09:30:04Z</time>
      </trkpt>
      <trkpt lat="45.24687" lon="4.63425">
        <ele>507</ele>
        <time>2021-06-04T09:31:30Z</time>
      </trkpt>
      <trkpt lat="45.24631" lon="4.63339">
        <ele>508</ele>
        <time>2021-06-04T09:33:20Z</time>
      </trkpt>
      <trkpt lat="45.24607" lon="4.63326">
        <ele>507</ele>
        <time>2021-06-04T09:33:54Z</time>
      </trkpt>
      <trkpt lat="45.24588" lon="4.63318">
        <ele>505</ele>
        <time>2021-06-04T09:34:20Z</time>
      </trkpt>
      <trkpt lat="45.24573" lon="4.63317">
        <ele>503</ele>
        <time>2021-06-04T09:34:40Z</time>
      </trkpt>
      <trkpt lat="45.24538" lon="4.63302">
        <ele>502</ele>
        <time>2021-06-04T09:35:29Z</time>
      </trkpt>
      <trkpt lat="45.24518" lon="4.63297">
        <ele>500</ele>
        <time>2021-06-04T09:35:56Z</time>
      </trkpt>
      <trkpt lat="45.24498" lon="4.63288">
        <ele>499</ele>
        <time>2021-06-04T09:36:24Z</time>
      </trkpt>
      <trkpt lat="45.24487" lon="4.63285">
        <ele>498</ele>
        <time>2021-06-04T09:36:39Z</time>
      </trkpt>
      <trkpt lat="45.24464" lon="4.6329">
        <ele>494</ele>
        <time>2021-06-04T09:37:10Z</time>
      </trkpt>
      <trkpt lat="45.24419" lon="4.6327">
        <ele>492</ele>
        <time>2021-06-04T09:38:13Z</time>
      </trkpt>
      <trkpt lat="45.24388" lon="4.63263">
        <ele>490</ele>
        <time>2021-06-04T09:38:55Z</time>
      </trkpt>
      <trkpt lat="45.24365" lon="4.6326">
        <ele>488</ele>
        <time>2021-06-04T09:39:26Z</time>
      </trkpt>
      <trkpt lat="45.24362" lon="4.63254">
        <ele>488</ele>
        <time>2021-06-04T09:39:33Z</time>
      </trkpt>
      <trkpt lat="45.24335" lon="4.63246">
        <ele>487</ele>
        <time>2021-06-04T09:40:10Z</time>
      </trkpt>
      <trkpt lat="45.24269" lon="4.63256">
        <ele>479</ele>
        <time>2021-06-04T09:41:38Z</time>
      </trkpt>
      <trkpt lat="45.24199" lon="4.63259">
        <ele>472</ele>
        <time>2021-06-04T09:43:12Z</time>
      </trkpt>
      <trkpt lat="45.24174" lon="4.63253">
        <ele>471</ele>
        <time>2021-06-04T09:43:45Z</time>
      </trkpt>
      <trkpt lat="45.2415" lon="4.63241">
        <ele>470</ele>
        <time>2021-06-04T09:44:19Z</time>
      </trkpt>
      <trkpt lat="45.24121" lon="4.63231">
        <ele>466</ele>
        <time>2021-06-04T09:44:59Z</time>
      </trkpt>
      <trkpt lat="45.24114" lon="4.63233">
        <ele>465</ele>
        <time>2021-06-04T09:45:09Z</time>
      </trkpt>
      <trkpt lat="45.24087" lon="4.63259">
        <ele>458</ele>
        <time>2021-06-04T09:45:52Z</time>
      </trkpt>
      <trkpt lat="45.24071" lon="4.63225">
        <ele>457</ele>
        <time>2021-06-04T09:46:31Z</time>
      </trkpt>
      <trkpt lat="45.24067" lon="4.63203">
        <ele>458</ele>
        <time>2021-06-04T09:46:52Z</time>
      </trkpt>
      <trkpt lat="45.24062" lon="4.63145">
        <ele>460</ele>
        <time>2021-06-04T09:47:47Z</time>
      </trkpt>
      <trkpt lat="45.24053" lon="4.63096">
        <ele>460</ele>
        <time>2021-06-04T09:48:35Z</time>
      </trkpt>
      <trkpt lat="45.24046" lon="4.63067">
        <ele>461</ele>
        <time>2021-06-04T09:49:03Z</time>
      </trkpt>
      <trkpt lat="45.24029" lon="4.63034">
        <ele>459</ele>
        <time>2021-06-04T09:49:42Z</time>
      </trkpt>
      <trkpt lat="45.24011" lon="4.63002">
        <ele>457</ele>
        <time>2021-06-04T09:50:20Z</time>
      </trkpt>
      <trkpt lat="45.24003" lon="4.62989">
        <ele>456</ele>
        <time>2021-06-04T09:50:36Z</time>
      </trkpt>
      <trkpt lat="45.23989" lon="4.62968">
        <ele>455</ele>
        <time>2021-06-04T09:51:04Z</time>
      </trkpt>
      <trkpt lat="45.23959" lon="4.62907">
        <ele>453</ele>
        <time>2021-06-04T09:52:14Z</time>
      </trkpt>
      <trkpt lat="45.23948" lon="4.62871">
        <ele>452</ele>
        <time>2021-06-04T09:52:50Z</time>
      </trkpt>
      <trkpt lat="45.23938" lon="4.62842">
        <ele>452</ele>
        <time>2021-06-04T09:53:21Z</time>
      </trkpt>
      <trkpt lat="45.23917" lon="4.62809">
        <ele>447</ele>
        <time>2021-06-04T09:54:03Z</time>
      </trkpt>
      <trkpt lat="45.23912" lon="4.6279">
        <ele>445</ele>
        <time>2021-06-04T09:54:22Z</time>
      </trkpt>
      <trkpt lat="45.23911" lon="4.62765">
        <ele>444</ele>
        <time>2021-06-04T09:54:45Z</time>
      </trkpt>
      <trkpt lat="45.23917" lon="4.62735">
        <ele>443</ele>
        <time>2021-06-04T09:55:14Z</time>
      </trkpt>
      <trkpt lat="45.23938" lon="4.62675">
        <ele>436</ele>
        <time>2021-06-04T09:56:17Z</time>
      </trkpt>
      <trkpt lat="45.23952" lon="4.62657">
        <ele>434</ele>
        <time>2021-06-04T09:56:43Z</time>
      </trkpt>
      <trkpt lat="45.23992" lon="4.62635">
        <ele>435</ele>
        <time>2021-06-04T09:57:40Z</time>
      </trkpt>
      <trkpt lat="45.24022" lon="4.62621">
        <ele>430</ele>
        <time>2021-06-04T09:58:22Z</time>
      </trkpt>
      <trkpt lat="45.2404" lon="4.62623">
        <ele>428</ele>
        <time>2021-06-04T09:58:46Z</time>
      </trkpt>
      <trkpt lat="45.24063" lon="4.62635">
        <ele>429</ele>
        <time>2021-06-04T09:59:19Z</time>
      </trkpt>
      <trkpt lat="45.2413" lon="4.62661">
        <ele>433</ele>
        <time>2021-06-04T10:00:51Z</time>
      </trkpt>
      <trkpt lat="45.24148" lon="4.62672">
        <ele>434</ele>
        <time>2021-06-04T10:01:18Z</time>
      </trkpt>
      <trkpt lat="45.24155" lon="4.62667">
        <ele>433</ele>
        <time>2021-06-04T10:01:28Z</time>
      </trkpt>
      <trkpt lat="45.24157" lon="4.62657">
        <ele>431</ele>
        <time>2021-06-04T10:01:38Z</time>
      </trkpt>
      <trkpt lat="45.24159" lon="4.62636">
        <ele>428</ele>
        <time>2021-06-04T10:01:58Z</time>
      </trkpt>
      <trkpt lat="45.24155" lon="4.62562">
        <ele>419</ele>
        <time>2021-06-04T10:03:08Z</time>
      </trkpt>
      <trkpt lat="45.24156" lon="4.62549">
        <ele>418</ele>
        <time>2021-06-04T10:03:20Z</time>
      </trkpt>
      <trkpt lat="45.24163" lon="4.62532">
        <ele>417</ele>
        <time>2021-06-04T10:03:38Z</time>
      </trkpt>
      <trkpt lat="45.24172" lon="4.62515">
        <ele>417</ele>
        <time>2021-06-04T10:03:58Z</time>
      </trkpt>
      <trkpt lat="45.24185" lon="4.62497">
        <ele>419</ele>
        <time>2021-06-04T10:04:23Z</time>
      </trkpt>
      <trkpt lat="45.24209" lon="4.62477">
        <ele>425</ele>
        <time>2021-06-04T10:05:00Z</time>
      </trkpt>
      <trkpt lat="45.24223" lon="4.62458">
        <ele>427</ele>
        <time>2021-06-04T10:05:25Z</time>
      </trkpt>
      <trkpt lat="45.24225" lon="4.62456">
        <ele>427</ele>
        <time>2021-06-04T10:05:29Z</time>
      </trkpt>
      <trkpt lat="45.24225" lon="4.62447">
        <ele>427</ele>
        <time>2021-06-04T10:05:37Z</time>
      </trkpt>
      <trkpt lat="45.24222" lon="4.62439">
        <ele>426</ele>
        <time>2021-06-04T10:05:46Z</time>
      </trkpt>
      <trkpt lat="45.24219" lon="4.62433">
        <ele>426</ele>
        <time>2021-06-04T10:05:53Z</time>
      </trkpt>
      <trkpt lat="45.24208" lon="4.6243">
        <ele>427</ele>
        <time>2021-06-04T10:06:08Z</time>
      </trkpt>
      <trkpt lat="45.24194" lon="4.62432">
        <ele>427</ele>
        <time>2021-06-04T10:06:26Z</time>
      </trkpt>
      <trkpt lat="45.24124" lon="4.62465">
        <ele>416</ele>
        <time>2021-06-04T10:08:05Z</time>
      </trkpt>
      <trkpt lat="45.24114" lon="4.62464">
        <ele>415</ele>
        <time>2021-06-04T10:08:18Z</time>
      </trkpt>
      <trkpt lat="45.24106" lon="4.62452">
        <ele>417</ele>
        <time>2021-06-04T10:08:34Z</time>
      </trkpt>
      <trkpt lat="45.24087" lon="4.62416">
        <ele>424</ele>
        <time>2021-06-04T10:09:16Z</time>
      </trkpt>
      <trkpt lat="45.24035" lon="4.62381">
        <ele>427</ele>
        <time>2021-06-04T10:10:33Z</time>
      </trkpt>
      <trkpt lat="45.24014" lon="4.62378">
        <ele>424</ele>
        <time>2021-06-04T10:11:01Z</time>
      </trkpt>
      <trkpt lat="45.23964" lon="4.62355">
        <ele>423</ele>
        <time>2021-06-04T10:12:11Z</time>
      </trkpt>
      <trkpt lat="45.23937" lon="4.62339">
        <ele>423</ele>
        <time>2021-06-04T10:12:50Z</time>
      </trkpt>
      <trkpt lat="45.23924" lon="4.62326">
        <ele>423</ele>
        <time>2021-06-04T10:13:11Z</time>
      </trkpt>
      <trkpt lat="45.23914" lon="4.62308">
        <ele>423</ele>
        <time>2021-06-04T10:13:33Z</time>
      </trkpt>
      <trkpt lat="45.23904" lon="4.62283">
        <ele>423</ele>
        <time>2021-06-04T10:14:00Z</time>
      </trkpt>
      <trkpt lat="45.23896" lon="4.62253">
        <ele>425</ele>
        <time>2021-06-04T10:14:30Z</time>
      </trkpt>
      <trkpt lat="45.2386" lon="4.6218">
        <ele>426</ele>
        <time>2021-06-04T10:15:54Z</time>
      </trkpt>
      <trkpt lat="45.2384" lon="4.62148">
        <ele>425</ele>
        <time>2021-06-04T10:16:34Z</time>
      </trkpt>
      <trkpt lat="45.23831" lon="4.62126">
        <ele>425</ele>
        <time>2021-06-04T10:16:58Z</time>
      </trkpt>
      <trkpt lat="45.23825" lon="4.62099">
        <ele>427</ele>
        <time>2021-06-04T10:17:24Z</time>
      </trkpt>
      <trkpt lat="45.23826" lon="4.62038">
        <ele>432</ele>
        <time>2021-06-04T10:18:22Z</time>
      </trkpt>
      <trkpt lat="45.23822" lon="4.62011">
        <ele>433</ele>
        <time>2021-06-04T10:18:48Z</time>
      </trkpt>
      <trkpt lat="45.23817" lon="4.61983">
        <ele>432</ele>
        <time>2021-06-04T10:19:15Z</time>
      </trkpt>
      <trkpt lat="45.23821" lon="4.61947">
        <ele>433</ele>
        <time>2021-06-04T10:19:49Z</time>
      </trkpt>
      <trkpt lat="45.23823" lon="4.61919">
        <ele>434</ele>
        <time>2021-06-04T10:20:16Z</time>
      </trkpt>
      <trkpt lat="45.2382" lon="4.61896">
        <ele>435</ele>
        <time>2021-06-04T10:20:38Z</time>
      </trkpt>
      <trkpt lat="45.23812" lon="4.6187">
        <ele>434</ele>
        <time>2021-06-04T10:21:04Z</time>
      </trkpt>
      <trkpt lat="45.238" lon="4.61847">
        <ele>433</ele>
        <time>2021-06-04T10:21:31Z</time>
      </trkpt>
      <trkpt lat="45.23773" lon="4.61818">
        <ele>429</ele>
        <time>2021-06-04T10:22:16Z</time>
      </trkpt>
      <trkpt lat="45.23755" lon="4.61792">
        <ele>426</ele>
        <time>2021-06-04T10:22:51Z</time>
      </trkpt>
      <trkpt lat="45.23741" lon="4.61748">
        <ele>425</ele>
        <time>2021-06-04T10:23:36Z</time>
      </trkpt>
      <trkpt lat="45.23728" lon="4.61718">
        <ele>420</ele>
        <time>2021-06-04T10:24:09Z</time>
      </trkpt>
      <trkpt lat="45.23722" lon="4.61701">
        <ele>418</ele>
        <time>2021-06-04T10:24:27Z</time>
      </trkpt>
      <trkpt lat="45.23721" lon="4.61679">
        <ele>418</ele>
        <time>2021-06-04T10:24:48Z</time>
      </trkpt>
      <trkpt lat="45.23734" lon="4.61648">
        <ele>418</ele>
        <time>2021-06-04T10:25:22Z</time>
      </trkpt>
      <trkpt lat="45.23747" lon="4.61637">
        <ele>419</ele>
        <time>2021-06-04T10:25:42Z</time>
      </trkpt>
      <trkpt lat="45.23761" lon="4.61632">
        <ele>419</ele>
        <time>2021-06-04T10:26:01Z</time>
      </trkpt>
      <trkpt lat="45.23801" lon="4.61631">
        <ele>420</ele>
        <time>2021-06-04T10:26:54Z</time>
      </trkpt>
      <trkpt lat="45.23839" lon="4.61622">
        <ele>419</ele>
        <time>2021-06-04T10:27:46Z</time>
      </trkpt>
      <trkpt lat="45.23873" lon="4.61607">
        <ele>416</ele>
        <time>2021-06-04T10:28:33Z</time>
      </trkpt>
      <trkpt lat="45.23908" lon="4.61587">
        <ele>413</ele>
        <time>2021-06-04T10:29:24Z</time>
      </trkpt>
      <trkpt lat="45.23922" lon="4.61572">
        <ele>415</ele>
        <time>2021-06-04T10:29:47Z</time>
      </trkpt>
      <trkpt lat="45.23923" lon="4.61566">
        <ele>416</ele>
        <time>2021-06-04T10:29:53Z</time>
      </trkpt>
      <trkpt lat="45.23925" lon="4.61557">
        <ele>417</ele>
        <time>2021-06-04T10:30:02Z</time>
      </trkpt>
      <trkpt lat="45.23923" lon="4.61552">
        <ele>417</ele>
        <time>2021-06-04T10:30:07Z</time>
      </trkpt>
      <trkpt lat="45.23921" lon="4.61547">
        <ele>417</ele>
        <time>2021-06-04T10:30:13Z</time>
      </trkpt>
      <trkpt lat="45.23912" lon="4.61543">
        <ele>417</ele>
        <time>2021-06-04T10:30:25Z</time>
      </trkpt>
      <trkpt lat="45.23849" lon="4.61541">
        <ele>413</ele>
        <time>2021-06-04T10:31:49Z</time>
      </trkpt>
      <trkpt lat="45.23815" lon="4.61531">
        <ele>412</ele>
        <time>2021-06-04T10:32:36Z</time>
      </trkpt>
      <trkpt lat="45.23787" lon="4.61516">
        <ele>411</ele>
        <time>2021-06-04T10:33:15Z</time>
      </trkpt>
      <trkpt lat="45.23741" lon="4.61483">
        <ele>409</ele>
        <time>2021-06-04T10:34:24Z</time>
      </trkpt>
      <trkpt lat="45.23715" lon="4.61469">
        <ele>408</ele>
        <time>2021-06-04T10:35:01Z</time>
      </trkpt>
      <trkpt lat="45.237" lon="4.61453">
        <ele>407</ele>
        <time>2021-06-04T10:35:26Z</time>
      </trkpt>
      <trkpt lat="45.23687" lon="4.61439">
        <ele>407</ele>
        <time>2021-06-04T10:35:48Z</time>
      </trkpt>
      <trkpt lat="45.23672" lon="4.61422">
        <ele>405</ele>
        <time>2021-06-04T10:36:14Z</time>
      </trkpt>
      <trkpt lat="45.23657" lon="4.61404">
        <ele>404</ele>
        <time>2021-06-04T10:36:40Z</time>
      </trkpt>
      <trkpt lat="45.23669" lon="4.61503">
        <ele>403</ele>
        <time>2021-06-04T10:38:14Z</time>
      </trkpt>
      <trkpt lat="45.23671" lon="4.61525">
        <ele>403</ele>
        <time>2021-06-04T10:38:35Z</time>
      </trkpt>
      <trkpt lat="45.23673" lon="4.61539">
        <ele>403</ele>
        <time>2021-06-04T10:38:49Z</time>
      </trkpt>
      <trkpt lat="45.23676" lon="4.61559">
        <ele>404</ele>
        <time>2021-06-04T10:39:08Z</time>
      </trkpt>
    </trkseg>
  </trk>
</gpx>